sensor_id;sensor_type;location;lat;lon;timestamp;P1;durP1;ratioP1;P2;durP2;ratioP2
57309;SDS011;43153;50.984;18.204;2023-07-13T00:02:21;10.30;;;3.90;;
57309;SDS011;43153;50.984;18.204;2023-07-13T00:04:47;9.60;;;4.00;;
57309;SDS011;43153;50.984;18.204;2023-07-13T00:07:18;9.10;;;4.20;;
57309;SDS011;43153;50.984;18.204;2023-07-13T00:09:54;10.10;;;4.50;;
57309;SDS011;43153;50.984;18.204;2023-07-13T00:12:27;8.10;;;4.30;;
57309;SDS011;43153;50.984;18.204;2023-07-13T00:14:58;9.20;;;4.20;;
57309;SDS011;43153;50.984;18.204;2023-07-13T00:17:25;9.90;;;3.70;;
57309;SDS011;43153;50.984;18.204;2023-07-13T00:19:53;12.00;;;4.40;;
57309;SDS011;43153;50.984;18.204;2023-07-13T00:22:21;10.50;;;4.70;;
57309;SDS011;43153;50.984;18.204;2023-07-13T00:24:47;11.40;;;4.60;;
57309;SDS011;43153;50.984;18.204;2023-07-13T00:27:13;11.70;;;4.10;;
57309;SDS011;43153;50.984;18.204;2023-07-13T00:29:40;8.80;;;4.20;;
57309;SDS011;43153;50.984;18.204;2023-07-13T00:32:06;10.80;;;4.40;;
57309;SDS011;43153;50.984;18.204;2023-07-13T00:34:35;11.20;;;3.70;;
57309;SDS011;43153;50.984;18.204;2023-07-13T00:37:05;9.20;;;4.00;;
57309;SDS011;43153;50.984;18.204;2023-07-13T00:39:36;11.70;;;4.50;;
57309;SDS011;43153;50.984;18.204;2023-07-13T00:42:02;9.10;;;4.30;;
57309;SDS011;43153;50.984;18.204;2023-07-13T00:44:30;12.10;;;4.00;;
57309;SDS011;43153;50.984;18.204;2023-07-13T00:46:57;12.50;;;4.50;;
57309;SDS011;43153;50.984;18.204;2023-07-13T00:49:25;8.20;;;4.40;;
57309;SDS011;43153;50.984;18.204;2023-07-13T00:51:55;10.80;;;4.00;;
57309;SDS011;43153;50.984;18.204;2023-07-13T00:54:29;11.80;;;4.00;;
57309;SDS011;43153;50.984;18.204;2023-07-13T00:56:58;9.60;;;4.10;;
57309;SDS011;43153;50.984;18.204;2023-07-13T00:59:25;15.60;;;4.60;;
57309;SDS011;43153;50.984;18.204;2023-07-13T01:01:51;11.00;;;4.20;;
57309;SDS011;43153;50.984;18.204;2023-07-13T01:04:17;8.90;;;3.80;;
57309;SDS011;43153;50.984;18.204;2023-07-13T01:06:44;10.20;;;4.40;;
57309;SDS011;43153;50.984;18.204;2023-07-13T01:09:11;9.80;;;4.00;;
57309;SDS011;43153;50.984;18.204;2023-07-13T01:11:40;14.10;;;4.30;;
57309;SDS011;43153;50.984;18.204;2023-07-13T01:14:11;8.10;;;3.80;;
57309;SDS011;43153;50.984;18.204;2023-07-13T01:16:38;11.30;;;4.20;;
57309;SDS011;43153;50.984;18.204;2023-07-13T01:22:05;11.10;;;5.60;;
57309;SDS011;43153;50.984;18.204;2023-07-13T01:24:37;11.90;;;4.40;;
57309;SDS011;43153;50.984;18.204;2023-07-13T01:27:05;12.10;;;5.40;;
57309;SDS011;43153;50.984;18.204;2023-07-13T01:29:34;11.40;;;5.10;;
57309;SDS011;43153;50.984;18.204;2023-07-13T01:32:11;9.70;;;4.90;;
57309;SDS011;43153;50.984;18.204;2023-07-13T01:34:40;10.50;;;4.40;;
57309;SDS011;43153;50.984;18.204;2023-07-13T01:37:13;9.30;;;4.00;;
57309;SDS011;43153;50.984;18.204;2023-07-13T01:39:39;13.50;;;6.40;;
57309;SDS011;43153;50.984;18.204;2023-07-13T01:42:05;10.50;;;6.90;;
57309;SDS011;43153;50.984;18.204;2023-07-13T01:44:32;15.60;;;8.60;;
57309;SDS011;43153;50.984;18.204;2023-07-13T01:47:00;16.50;;;10.00;;
57309;SDS011;43153;50.984;18.204;2023-07-13T01:49:26;19.60;;;9.20;;
57309;SDS011;43153;50.984;18.204;2023-07-13T01:51:55;18.20;;;10.50;;
57309;SDS011;43153;50.984;18.204;2023-07-13T01:54:22;18.90;;;10.10;;
57309;SDS011;43153;50.984;18.204;2023-07-13T01:56:54;15.60;;;10.50;;
57309;SDS011;43153;50.984;18.204;2023-07-13T01:59:22;21.50;;;11.20;;
57309;SDS011;43153;50.984;18.204;2023-07-13T02:01:52;16.50;;;11.10;;
57309;SDS011;43153;50.984;18.204;2023-07-13T02:04:18;21.30;;;11.10;;
57309;SDS011;43153;50.984;18.204;2023-07-13T02:06:44;20.10;;;11.70;;
57309;SDS011;43153;50.984;18.204;2023-07-13T02:09:10;19.70;;;10.80;;
57309;SDS011;43153;50.984;18.204;2023-07-13T02:11:43;17.70;;;10.70;;
57309;SDS011;43153;50.984;18.204;2023-07-13T02:14:09;20.10;;;11.50;;
57309;SDS011;43153;50.984;18.204;2023-07-13T02:16:37;22.30;;;12.70;;
57309;SDS011;43153;50.984;18.204;2023-07-13T02:19:07;18.80;;;12.10;;
57309;SDS011;43153;50.984;18.204;2023-07-13T02:21:37;20.60;;;11.60;;
57309;SDS011;43153;50.984;18.204;2023-07-13T02:24:05;15.90;;;11.90;;
57309;SDS011;43153;50.984;18.204;2023-07-13T02:26:31;21.50;;;12.70;;
57309;SDS011;43153;50.984;18.204;2023-07-13T02:29:04;20.40;;;12.80;;
57309;SDS011;43153;50.984;18.204;2023-07-13T02:31:32;18.90;;;13.00;;
57309;SDS011;43153;50.984;18.204;2023-07-13T02:34:01;21.20;;;13.20;;
57309;SDS011;43153;50.984;18.204;2023-07-13T02:36:31;20.40;;;12.80;;
57309;SDS011;43153;50.984;18.204;2023-07-13T02:39:00;22.70;;;13.60;;
57309;SDS011;43153;50.984;18.204;2023-07-13T02:41:26;25.50;;;13.20;;
57309;SDS011;43153;50.984;18.204;2023-07-13T02:43:57;24.60;;;13.00;;
57309;SDS011;43153;50.984;18.204;2023-07-13T02:46:28;25.90;;;13.80;;
57309;SDS011;43153;50.984;18.204;2023-07-13T02:48:57;20.20;;;13.20;;
57309;SDS011;43153;50.984;18.204;2023-07-13T02:51:23;25.80;;;15.20;;
57309;SDS011;43153;50.984;18.204;2023-07-13T02:53:49;25.10;;;14.40;;
57309;SDS011;43153;50.984;18.204;2023-07-13T02:56:16;28.00;;;15.30;;
57309;SDS011;43153;50.984;18.204;2023-07-13T02:58:45;25.60;;;14.70;;
57309;SDS011;43153;50.984;18.204;2023-07-13T03:01:11;28.60;;;16.10;;
57309;SDS011;43153;50.984;18.204;2023-07-13T03:03:37;25.20;;;16.70;;
57309;SDS011;43153;50.984;18.204;2023-07-13T03:06:10;29.30;;;17.40;;
57309;SDS011;43153;50.984;18.204;2023-07-13T03:08:36;24.80;;;16.60;;
57309;SDS011;43153;50.984;18.204;2023-07-13T03:11:04;27.70;;;17.70;;
57309;SDS011;43153;50.984;18.204;2023-07-13T03:13:31;27.10;;;16.90;;
57309;SDS011;43153;50.984;18.204;2023-07-13T03:15:59;32.40;;;18.40;;
57309;SDS011;43153;50.984;18.204;2023-07-13T03:18:26;27.40;;;18.80;;
57309;SDS011;43153;50.984;18.204;2023-07-13T03:20:52;27.00;;;18.10;;
57309;SDS011;43153;50.984;18.204;2023-07-13T03:23:20;33.00;;;20.00;;
57309;SDS011;43153;50.984;18.204;2023-07-13T03:25:50;32.40;;;20.50;;
57309;SDS011;43153;50.984;18.204;2023-07-13T03:28:17;35.70;;;19.30;;
57309;SDS011;43153;50.984;18.204;2023-07-13T03:30:44;31.70;;;18.50;;
57309;SDS011;43153;50.984;18.204;2023-07-13T03:33:14;25.00;;;18.50;;
57309;SDS011;43153;50.984;18.204;2023-07-13T03:35:45;29.40;;;16.70;;
57309;SDS011;43153;50.984;18.204;2023-07-13T03:38:12;29.60;;;19.00;;
57309;SDS011;43153;50.984;18.204;2023-07-13T03:40:39;26.30;;;16.40;;
57309;SDS011;43153;50.984;18.204;2023-07-13T03:43:05;27.00;;;16.60;;
57309;SDS011;43153;50.984;18.204;2023-07-13T03:45:32;24.80;;;16.20;;
57309;SDS011;43153;50.984;18.204;2023-07-13T03:47:58;26.00;;;15.90;;
57309;SDS011;43153;50.984;18.204;2023-07-13T03:50:25;26.40;;;17.10;;
57309;SDS011;43153;50.984;18.204;2023-07-13T03:52:51;30.80;;;17.60;;
57309;SDS011;43153;50.984;18.204;2023-07-13T03:55:18;30.70;;;16.50;;
57309;SDS011;43153;50.984;18.204;2023-07-13T03:57:44;24.20;;;15.90;;
57309;SDS011;43153;50.984;18.204;2023-07-13T04:00:11;27.60;;;18.50;;
57309;SDS011;43153;50.984;18.204;2023-07-13T04:02:38;27.30;;;17.70;;
57309;SDS011;43153;50.984;18.204;2023-07-13T04:05:04;26.70;;;17.30;;
57309;SDS011;43153;50.984;18.204;2023-07-13T04:07:30;26.60;;;18.30;;
57309;SDS011;43153;50.984;18.204;2023-07-13T04:10:02;29.90;;;17.20;;
57309;SDS011;43153;50.984;18.204;2023-07-13T04:12:31;26.20;;;16.60;;
57309;SDS011;43153;50.984;18.204;2023-07-13T04:15:00;25.30;;;17.00;;
57309;SDS011;43153;50.984;18.204;2023-07-13T04:17:27;23.20;;;15.90;;
57309;SDS011;43153;50.984;18.204;2023-07-13T04:19:58;19.80;;;14.90;;
57309;SDS011;43153;50.984;18.204;2023-07-13T04:22:24;23.00;;;15.50;;
57309;SDS011;43153;50.984;18.204;2023-07-13T04:24:51;24.00;;;15.70;;
57309;SDS011;43153;50.984;18.204;2023-07-13T04:27:19;24.40;;;16.20;;
57309;SDS011;43153;50.984;18.204;2023-07-13T04:29:45;21.10;;;14.80;;
57309;SDS011;43153;50.984;18.204;2023-07-13T04:32:11;20.10;;;14.70;;
57309;SDS011;43153;50.984;18.204;2023-07-13T04:34:40;20.60;;;15.30;;
57309;SDS011;43153;50.984;18.204;2023-07-13T04:37:07;21.80;;;15.40;;
57309;SDS011;43153;50.984;18.204;2023-07-13T04:39:36;20.50;;;13.90;;
57309;SDS011;43153;50.984;18.204;2023-07-13T04:42:08;18.00;;;13.30;;
57309;SDS011;43153;50.984;18.204;2023-07-13T04:44:36;20.40;;;14.10;;
57309;SDS011;43153;50.984;18.204;2023-07-13T04:47:08;18.70;;;13.40;;
57309;SDS011;43153;50.984;18.204;2023-07-13T04:49:34;21.60;;;14.10;;
57309;SDS011;43153;50.984;18.204;2023-07-13T04:52:04;20.30;;;13.80;;
57309;SDS011;43153;50.984;18.204;2023-07-13T04:54:31;24.90;;;13.70;;
57309;SDS011;43153;50.984;18.204;2023-07-13T04:57:03;23.70;;;14.10;;
57309;SDS011;43153;50.984;18.204;2023-07-13T04:59:33;23.70;;;15.40;;
57309;SDS011;43153;50.984;18.204;2023-07-13T05:01:59;25.80;;;14.80;;
57309;SDS011;43153;50.984;18.204;2023-07-13T05:04:25;20.90;;;14.80;;
57309;SDS011;43153;50.984;18.204;2023-07-13T05:06:55;25.00;;;15.10;;
57309;SDS011;43153;50.984;18.204;2023-07-13T05:09:25;22.60;;;14.50;;
57309;SDS011;43153;50.984;18.204;2023-07-13T05:11:59;20.80;;;15.00;;
57309;SDS011;43153;50.984;18.204;2023-07-13T05:14:26;21.40;;;15.00;;
57309;SDS011;43153;50.984;18.204;2023-07-13T05:16:52;22.70;;;16.70;;
57309;SDS011;43153;50.984;18.204;2023-07-13T05:19:18;26.90;;;18.10;;
57309;SDS011;43153;50.984;18.204;2023-07-13T05:21:46;24.50;;;16.00;;
57309;SDS011;43153;50.984;18.204;2023-07-13T05:24:13;25.70;;;16.80;;
57309;SDS011;43153;50.984;18.204;2023-07-13T05:26:42;34.80;;;16.30;;
57309;SDS011;43153;50.984;18.204;2023-07-13T05:29:11;24.40;;;15.80;;
57309;SDS011;43153;50.984;18.204;2023-07-13T05:31:37;25.70;;;17.30;;
57309;SDS011;43153;50.984;18.204;2023-07-13T05:34:06;29.50;;;17.60;;
57309;SDS011;43153;50.984;18.204;2023-07-13T05:36:37;29.80;;;19.20;;
57309;SDS011;43153;50.984;18.204;2023-07-13T05:39:08;28.80;;;19.90;;
57309;SDS011;43153;50.984;18.204;2023-07-13T05:41:35;39.30;;;25.00;;
57309;SDS011;43153;50.984;18.204;2023-07-13T05:44:05;38.90;;;26.90;;
57309;SDS011;43153;50.984;18.204;2023-07-13T05:46:32;38.80;;;28.60;;
57309;SDS011;43153;50.984;18.204;2023-07-13T05:48:59;35.50;;;25.50;;
57309;SDS011;43153;50.984;18.204;2023-07-13T05:51:25;37.80;;;26.70;;
57309;SDS011;43153;50.984;18.204;2023-07-13T05:53:51;32.80;;;22.90;;
57309;SDS011;43153;50.984;18.204;2023-07-13T05:56:23;33.60;;;22.80;;
57309;SDS011;43153;50.984;18.204;2023-07-13T05:58:54;33.80;;;23.60;;
57309;SDS011;43153;50.984;18.204;2023-07-13T06:01:22;36.80;;;26.10;;
57309;SDS011;43153;50.984;18.204;2023-07-13T06:03:51;27.40;;;20.00;;
57309;SDS011;43153;50.984;18.204;2023-07-13T06:06:18;26.30;;;18.00;;
57309;SDS011;43153;50.984;18.204;2023-07-13T06:08:51;23.30;;;16.90;;
57309;SDS011;43153;50.984;18.204;2023-07-13T06:11:18;23.60;;;14.10;;
57309;SDS011;43153;50.984;18.204;2023-07-13T06:13:44;16.00;;;11.60;;
57309;SDS011;43153;50.984;18.204;2023-07-13T06:16:11;21.70;;;12.10;;
57309;SDS011;43153;50.984;18.204;2023-07-13T06:18:37;15.30;;;9.20;;
57309;SDS011;43153;50.984;18.204;2023-07-13T06:21:09;15.70;;;8.50;;
57309;SDS011;43153;50.984;18.204;2023-07-13T06:23:35;16.90;;;7.90;;
57309;SDS011;43153;50.984;18.204;2023-07-13T06:26:02;11.20;;;7.10;;
57309;SDS011;43153;50.984;18.204;2023-07-13T06:28:29;12.70;;;6.10;;
57309;SDS011;43153;50.984;18.204;2023-07-13T06:30:59;10.90;;;5.70;;
57309;SDS011;43153;50.984;18.204;2023-07-13T06:33:29;13.30;;;6.60;;
57309;SDS011;43153;50.984;18.204;2023-07-13T06:36:02;12.90;;;6.60;;
57309;SDS011;43153;50.984;18.204;2023-07-13T06:38:39;10.20;;;6.10;;
57309;SDS011;43153;50.984;18.204;2023-07-13T06:41:07;13.20;;;7.00;;
57309;SDS011;43153;50.984;18.204;2023-07-13T06:43:44;11.90;;;5.60;;
57309;SDS011;43153;50.984;18.204;2023-07-13T06:46:12;9.10;;;4.60;;
57309;SDS011;43153;50.984;18.204;2023-07-13T06:48:40;9.60;;;3.30;;
57309;SDS011;43153;50.984;18.204;2023-07-13T06:51:11;9.00;;;3.60;;
57309;SDS011;43153;50.984;18.204;2023-07-13T06:53:37;9.90;;;3.30;;
57309;SDS011;43153;50.984;18.204;2023-07-13T06:56:03;8.60;;;3.80;;
57309;SDS011;43153;50.984;18.204;2023-07-13T06:58:33;9.40;;;3.60;;
57309;SDS011;43153;50.984;18.204;2023-07-13T07:01:03;11.10;;;3.70;;
57309;SDS011;43153;50.984;18.204;2023-07-13T07:03:29;7.90;;;3.00;;
57309;SDS011;43153;50.984;18.204;2023-07-13T07:06:00;7.00;;;2.80;;
57309;SDS011;43153;50.984;18.204;2023-07-13T07:08:25;6.10;;;2.80;;
57309;SDS011;43153;50.984;18.204;2023-07-13T07:10:51;7.30;;;2.70;;
57309;SDS011;43153;50.984;18.204;2023-07-13T07:15:50;5.20;;;2.50;;
57309;SDS011;43153;50.984;18.204;2023-07-13T07:18:17;7.70;;;2.40;;
57309;SDS011;43153;50.984;18.204;2023-07-13T07:20:45;7.40;;;2.70;;
57309;SDS011;43153;50.984;18.204;2023-07-13T07:23:13;7.60;;;3.10;;
57309;SDS011;43153;50.984;18.204;2023-07-13T07:25:44;6.70;;;2.30;;
57309;SDS011;43153;50.984;18.204;2023-07-13T07:28:17;10.40;;;3.20;;
57309;SDS011;43153;50.984;18.204;2023-07-13T07:30:44;6.90;;;3.20;;
57309;SDS011;43153;50.984;18.204;2023-07-13T07:33:10;7.30;;;2.50;;
57309;SDS011;43153;50.984;18.204;2023-07-13T07:35:36;7.20;;;2.50;;
57309;SDS011;43153;50.984;18.204;2023-07-13T07:38:02;7.50;;;2.70;;
57309;SDS011;43153;50.984;18.204;2023-07-13T07:40:29;7.60;;;2.20;;
57309;SDS011;43153;50.984;18.204;2023-07-13T07:42:58;6.20;;;2.90;;
57309;SDS011;43153;50.984;18.204;2023-07-13T07:45:26;5.50;;;2.40;;
57309;SDS011;43153;50.984;18.204;2023-07-13T07:47:54;6.50;;;2.30;;
57309;SDS011;43153;50.984;18.204;2023-07-13T07:50:26;5.40;;;1.90;;
57309;SDS011;43153;50.984;18.204;2023-07-13T07:52:53;6.20;;;2.30;;
57309;SDS011;43153;50.984;18.204;2023-07-13T07:55:19;6.80;;;2.80;;
57309;SDS011;43153;50.984;18.204;2023-07-13T07:57:48;8.60;;;2.20;;
57309;SDS011;43153;50.984;18.204;2023-07-13T08:00:15;7.20;;;2.50;;
57309;SDS011;43153;50.984;18.204;2023-07-13T08:02:43;9.70;;;2.90;;
57309;SDS011;43153;50.984;18.204;2023-07-13T08:05:09;8.20;;;2.60;;
57309;SDS011;43153;50.984;18.204;2023-07-13T08:07:36;9.10;;;2.50;;
57309;SDS011;43153;50.984;18.204;2023-07-13T08:10:05;8.40;;;2.80;;
57309;SDS011;43153;50.984;18.204;2023-07-13T08:12:39;11.60;;;2.70;;
57309;SDS011;43153;50.984;18.204;2023-07-13T08:15:08;12.20;;;3.20;;
57309;SDS011;43153;50.984;18.204;2023-07-13T08:17:34;8.30;;;3.50;;
57309;SDS011;43153;50.984;18.204;2023-07-13T08:20:02;8.20;;;3.40;;
57309;SDS011;43153;50.984;18.204;2023-07-13T08:22:31;10.10;;;4.60;;
57309;SDS011;43153;50.984;18.204;2023-07-13T08:25:05;14.10;;;4.50;;
57309;SDS011;43153;50.984;18.204;2023-07-13T08:27:34;9.50;;;4.20;;
57309;SDS011;43153;50.984;18.204;2023-07-13T08:30:04;13.30;;;5.20;;
57309;SDS011;43153;50.984;18.204;2023-07-13T08:32:33;12.70;;;4.80;;
57309;SDS011;43153;50.984;18.204;2023-07-13T08:35:01;10.80;;;4.90;;
57309;SDS011;43153;50.984;18.204;2023-07-13T08:37:27;12.10;;;5.10;;
57309;SDS011;43153;50.984;18.204;2023-07-13T08:39:54;8.40;;;4.30;;
57309;SDS011;43153;50.984;18.204;2023-07-13T08:42:36;13.00;;;5.50;;
57309;SDS011;43153;50.984;18.204;2023-07-13T09:28:28;10.10;;;5.30;;
57309;SDS011;43153;50.984;18.204;2023-07-13T09:33:51;14.30;;;5.80;;
57309;SDS011;43153;50.984;18.204;2023-07-13T09:36:30;10.10;;;4.70;;
57309;SDS011;43153;50.984;18.204;2023-07-13T09:41:50;14.60;;;6.40;;
57309;SDS011;43153;50.984;18.204;2023-07-13T09:44:27;11.60;;;6.10;;
57309;SDS011;43153;50.984;18.204;2023-07-13T09:47:00;10.60;;;5.50;;
57309;SDS011;43153;50.984;18.204;2023-07-13T09:49:36;8.70;;;4.90;;
57309;SDS011;43153;50.984;18.204;2023-07-13T09:52:06;9.20;;;5.20;;
57309;SDS011;43153;50.984;18.204;2023-07-13T09:54:39;14.00;;;6.30;;
57309;SDS011;43153;50.984;18.204;2023-07-13T09:57:16;13.00;;;5.80;;
57309;SDS011;43153;50.984;18.204;2023-07-13T09:59:44;11.90;;;5.90;;
57309;SDS011;43153;50.984;18.204;2023-07-13T10:05:11;9.40;;;5.10;;
57309;SDS011;43153;50.984;18.204;2023-07-13T10:07:41;10.20;;;5.80;;
57309;SDS011;43153;50.984;18.204;2023-07-13T10:10:17;11.40;;;5.10;;
57309;SDS011;43153;50.984;18.204;2023-07-13T10:12:49;10.60;;;5.40;;
57309;SDS011;43153;50.984;18.204;2023-07-13T10:15:23;11.60;;;5.10;;
57309;SDS011;43153;50.984;18.204;2023-07-13T10:17:52;8.20;;;4.90;;
57309;SDS011;43153;50.984;18.204;2023-07-13T10:20:23;8.10;;;4.60;;
57309;SDS011;43153;50.984;18.204;2023-07-13T10:22:58;9.70;;;5.60;;
57309;SDS011;43153;50.984;18.204;2023-07-13T10:25:29;9.20;;;4.60;;
57309;SDS011;43153;50.984;18.204;2023-07-13T10:28:06;10.00;;;4.40;;
57309;SDS011;43153;50.984;18.204;2023-07-13T10:30:52;7.60;;;4.00;;
57309;SDS011;43153;50.984;18.204;2023-07-13T10:33:22;9.10;;;4.50;;
57309;SDS011;43153;50.984;18.204;2023-07-13T10:35:51;9.20;;;4.50;;
57309;SDS011;43153;50.984;18.204;2023-07-13T10:38:28;8.40;;;3.70;;
57309;SDS011;43153;50.984;18.204;2023-07-13T10:40:58;9.30;;;5.00;;
57309;SDS011;43153;50.984;18.204;2023-07-13T10:43:32;8.40;;;3.40;;
57309;SDS011;43153;50.984;18.204;2023-07-13T10:46:05;8.50;;;4.10;;
57309;SDS011;43153;50.984;18.204;2023-07-13T10:48:36;6.90;;;2.90;;
57309;SDS011;43153;50.984;18.204;2023-07-13T10:51:03;6.00;;;3.50;;
57309;SDS011;43153;50.984;18.204;2023-07-13T10:53:33;7.80;;;3.30;;
57309;SDS011;43153;50.984;18.204;2023-07-13T10:56:02;6.80;;;3.60;;
57309;SDS011;43153;50.984;18.204;2023-07-13T10:58:39;11.80;;;5.80;;
57309;SDS011;43153;50.984;18.204;2023-07-13T11:06:17;14.60;;;7.00;;
57309;SDS011;43153;50.984;18.204;2023-07-13T11:09:17;8.40;;;3.80;;
57309;SDS011;43153;50.984;18.204;2023-07-13T11:12:49;7.80;;;4.50;;
57309;SDS011;43153;50.984;18.204;2023-07-13T11:15:14;14.10;;;5.10;;
57309;SDS011;43153;50.984;18.204;2023-07-13T11:17:50;9.20;;;4.60;;
57309;SDS011;43153;50.984;18.204;2023-07-13T11:20:30;7.70;;;3.90;;
57309;SDS011;43153;50.984;18.204;2023-07-13T11:23:15;7.60;;;3.00;;
57309;SDS011;43153;50.984;18.204;2023-07-13T11:25:44;5.60;;;2.10;;
57309;SDS011;43153;50.984;18.204;2023-07-13T11:30:47;5.60;;;2.10;;
57309;SDS011;43153;50.984;18.204;2023-07-13T11:39:25;6.00;;;2.10;;
57309;SDS011;43153;50.984;18.204;2023-07-13T11:41:57;3.70;;;1.50;;
57309;SDS011;43153;50.984;18.204;2023-07-13T11:44:26;5.30;;;1.90;;
57309;SDS011;43153;50.984;18.204;2023-07-13T11:46:57;6.10;;;1.80;;
57309;SDS011;43153;50.984;18.204;2023-07-13T11:49:31;3.40;;;1.30;;
57309;SDS011;43153;50.984;18.204;2023-07-13T11:51:58;5.40;;;1.60;;
57309;SDS011;43153;50.984;18.204;2023-07-13T11:57:23;3.00;;;1.10;;
57309;SDS011;43153;50.984;18.204;2023-07-13T11:59:49;3.70;;;1.30;;
57309;SDS011;43153;50.984;18.204;2023-07-13T12:02:21;7.40;;;1.40;;
57309;SDS011;43153;50.984;18.204;2023-07-13T12:04:52;5.90;;;1.30;;
57309;SDS011;43153;50.984;18.204;2023-07-13T12:07:28;2.40;;;1.00;;
57309;SDS011;43153;50.984;18.204;2023-07-13T12:10:20;3.60;;;1.20;;
57309;SDS011;43153;50.984;18.204;2023-07-13T12:12:48;3.40;;;1.50;;
57309;SDS011;43153;50.984;18.204;2023-07-13T12:15:18;3.10;;;1.20;;
57309;SDS011;43153;50.984;18.204;2023-07-13T12:17:45;4.10;;;1.20;;
57309;SDS011;43153;50.984;18.204;2023-07-13T12:20:20;2.60;;;1.20;;
57309;SDS011;43153;50.984;18.204;2023-07-13T12:23:00;3.20;;;1.10;;
57309;SDS011;43153;50.984;18.204;2023-07-13T12:25:30;3.90;;;1.20;;
57309;SDS011;43153;50.984;18.204;2023-07-13T12:27:56;3.40;;;1.00;;
57309;SDS011;43153;50.984;18.204;2023-07-13T12:30:27;2.50;;;0.90;;
57309;SDS011;43153;50.984;18.204;2023-07-13T12:32:59;3.80;;;0.90;;
57309;SDS011;43153;50.984;18.204;2023-07-13T12:35:31;3.30;;;1.00;;
57309;SDS011;43153;50.984;18.204;2023-07-13T12:38:02;7.30;;;1.50;;
57309;SDS011;43153;50.984;18.204;2023-07-13T12:40:34;5.10;;;1.10;;
57309;SDS011;43153;50.984;18.204;2023-07-13T12:43:12;5.30;;;1.20;;
57309;SDS011;43153;50.984;18.204;2023-07-13T12:48:27;3.10;;;1.10;;
57309;SDS011;43153;50.984;18.204;2023-07-13T12:50:53;3.30;;;0.90;;
57309;SDS011;43153;50.984;18.204;2023-07-13T12:53:27;4.10;;;0.90;;
57309;SDS011;43153;50.984;18.204;2023-07-13T12:55:59;2.70;;;0.60;;
57309;SDS011;43153;50.984;18.204;2023-07-13T12:58:31;2.70;;;0.70;;
57309;SDS011;43153;50.984;18.204;2023-07-13T13:01:12;3.30;;;0.90;;
57309;SDS011;43153;50.984;18.204;2023-07-13T13:03:45;3.20;;;0.70;;
57309;SDS011;43153;50.984;18.204;2023-07-13T13:06:36;2.70;;;0.90;;
57309;SDS011;43153;50.984;18.204;2023-07-13T13:09:09;2.20;;;0.70;;
57309;SDS011;43153;50.984;18.204;2023-07-13T13:11:39;2.90;;;0.60;;
57309;SDS011;43153;50.984;18.204;2023-07-13T13:14:05;2.10;;;0.60;;
57309;SDS011;43153;50.984;18.204;2023-07-13T13:16:39;2.00;;;0.70;;
57309;SDS011;43153;50.984;18.204;2023-07-13T13:21:47;2.40;;;0.70;;
57309;SDS011;43153;50.984;18.204;2023-07-13T13:24:20;1.50;;;0.50;;
57309;SDS011;43153;50.984;18.204;2023-07-13T13:26:49;6.00;;;0.70;;
57309;SDS011;43153;50.984;18.204;2023-07-13T13:29:23;2.60;;;0.70;;
57309;SDS011;43153;50.984;18.204;2023-07-13T13:31:51;3.50;;;0.80;;
57309;SDS011;43153;50.984;18.204;2023-07-13T13:34:18;3.30;;;0.60;;
57309;SDS011;43153;50.984;18.204;2023-07-13T13:36:46;1.90;;;0.70;;
57309;SDS011;43153;50.984;18.204;2023-07-13T13:39:18;2.20;;;0.70;;
57309;SDS011;43153;50.984;18.204;2023-07-13T13:41:49;1.80;;;0.80;;
57309;SDS011;43153;50.984;18.204;2023-07-13T13:44:17;1.20;;;0.60;;
57309;SDS011;43153;50.984;18.204;2023-07-13T13:46:53;2.80;;;0.70;;
57309;SDS011;43153;50.984;18.204;2023-07-13T13:49:27;4.90;;;0.60;;
57309;SDS011;43153;50.984;18.204;2023-07-13T13:51:55;3.10;;;0.80;;
57309;SDS011;43153;50.984;18.204;2023-07-13T13:54:25;3.00;;;0.60;;
57309;SDS011;43153;50.984;18.204;2023-07-13T13:56:52;2.00;;;0.70;;
57309;SDS011;43153;50.984;18.204;2023-07-13T13:59:18;3.20;;;0.80;;
57309;SDS011;43153;50.984;18.204;2023-07-13T14:01:46;1.90;;;0.90;;
57309;SDS011;43153;50.984;18.204;2023-07-13T14:04:17;2.20;;;0.70;;
57309;SDS011;43153;50.984;18.204;2023-07-13T14:06:46;3.60;;;0.70;;
57309;SDS011;43153;50.984;18.204;2023-07-13T14:09:15;4.40;;;0.90;;
57309;SDS011;43153;50.984;18.204;2023-07-13T14:11:44;5.30;;;1.00;;
57309;SDS011;43153;50.984;18.204;2023-07-13T14:14:22;3.40;;;0.90;;
57309;SDS011;43153;50.984;18.204;2023-07-13T14:16:50;3.70;;;0.70;;
57309;SDS011;43153;50.984;18.204;2023-07-13T14:19:19;4.50;;;1.20;;
57309;SDS011;43153;50.984;18.204;2023-07-13T14:21:46;2.30;;;0.90;;
57309;SDS011;43153;50.984;18.204;2023-07-13T14:24:14;6.00;;;1.00;;
57309;SDS011;43153;50.984;18.204;2023-07-13T14:26:42;2.20;;;0.70;;
57309;SDS011;43153;50.984;18.204;2023-07-13T14:29:12;5.30;;;0.80;;
57309;SDS011;43153;50.984;18.204;2023-07-13T14:31:44;6.60;;;0.80;;
57309;SDS011;43153;50.984;18.204;2023-07-13T14:34:11;1.80;;;0.80;;
57309;SDS011;43153;50.984;18.204;2023-07-13T14:36:42;3.30;;;0.80;;
57309;SDS011;43153;50.984;18.204;2023-07-13T14:39:20;3.20;;;0.80;;
57309;SDS011;43153;50.984;18.204;2023-07-13T14:41:52;3.90;;;0.80;;
57309;SDS011;43153;50.984;18.204;2023-07-13T14:44:24;3.30;;;0.90;;
57309;SDS011;43153;50.984;18.204;2023-07-13T14:46:59;4.60;;;1.00;;
57309;SDS011;43153;50.984;18.204;2023-07-13T14:52:08;2.40;;;1.00;;
57309;SDS011;43153;50.984;18.204;2023-07-13T14:54:36;2.90;;;1.00;;
57309;SDS011;43153;50.984;18.204;2023-07-13T14:57:13;4.10;;;1.10;;
57309;SDS011;43153;50.984;18.204;2023-07-13T14:59:42;3.00;;;1.00;;
57309;SDS011;43153;50.984;18.204;2023-07-13T15:02:17;3.20;;;1.00;;
57309;SDS011;43153;50.984;18.204;2023-07-13T15:04:45;4.40;;;1.00;;
57309;SDS011;43153;50.984;18.204;2023-07-13T15:07:15;6.80;;;0.90;;
57309;SDS011;43153;50.984;18.204;2023-07-13T15:09:44;5.70;;;1.10;;
57309;SDS011;43153;50.984;18.204;2023-07-13T15:12:10;3.20;;;0.90;;
57309;SDS011;43153;50.984;18.204;2023-07-13T15:53:50;4.40;;;0.90;;
57309;SDS011;43153;50.984;18.204;2023-07-13T15:56:24;4.10;;;1.00;;
57309;SDS011;43153;50.984;18.204;2023-07-13T15:58:53;5.00;;;1.10;;
57309;SDS011;43153;50.984;18.204;2023-07-13T16:01:20;3.40;;;1.00;;
57309;SDS011;43153;50.984;18.204;2023-07-13T16:03:46;3.90;;;1.40;;
57309;SDS011;43153;50.984;18.204;2023-07-13T16:06:14;5.70;;;1.70;;
57309;SDS011;43153;50.984;18.204;2023-07-13T16:08:54;7.10;;;1.20;;
57309;SDS011;43153;50.984;18.204;2023-07-13T16:11:23;2.70;;;1.00;;
57309;SDS011;43153;50.984;18.204;2023-07-13T16:13:50;2.50;;;1.10;;
57309;SDS011;43153;50.984;18.204;2023-07-13T16:16:23;5.40;;;1.60;;
57309;SDS011;43153;50.984;18.204;2023-07-13T16:18:54;4.00;;;1.10;;
57309;SDS011;43153;50.984;18.204;2023-07-13T16:21:23;3.60;;;0.90;;
57309;SDS011;43153;50.984;18.204;2023-07-13T16:23:51;3.60;;;1.10;;
57309;SDS011;43153;50.984;18.204;2023-07-13T16:29:13;2.90;;;1.10;;
57309;SDS011;43153;50.984;18.204;2023-07-13T16:31:57;5.20;;;1.40;;
57309;SDS011;43153;50.984;18.204;2023-07-13T16:34:26;2.30;;;1.00;;
57309;SDS011;43153;50.984;18.204;2023-07-13T16:36:56;4.10;;;1.50;;
57309;SDS011;43153;50.984;18.204;2023-07-13T16:39:22;3.70;;;1.30;;
57309;SDS011;43153;50.984;18.204;2023-07-13T16:41:54;4.30;;;1.20;;
57309;SDS011;43153;50.984;18.204;2023-07-13T16:44:21;3.40;;;1.30;;